Time;durP1;ratioP1;P1;durP2;ratioP2;P2;SDS_P1;SDS_P2;PMS_P1;PMS_P2;Temp;Humidity;BMP_temperature;BMP_pressure;BME280_temperature;BME280_humidity;BME280_pressure;Samples;Min_cycle;Max_cycle;Signal;HPM_P1;HPM_P2
2021/12/16 00:09:40;;;;;;;49.55;26.17;;;;;;;9.25;92.45;103370.53;5034013;28;20061;-64
2021/12/16 00:31:19;;;;;;;48.75;26.38;;;;;;;9.23;92.69;103376.53;5095768;28;20480;-65
2021/12/16 00:33:57;;;;;;;48.38;28.45;;;;;;;9.23;92.54;103381.81;5094235;28;20032;-64
2021/12/16 00:36:22;;;;;;;46.45;27.25;;;;;;;9.21;92.64;103380.84;5095538;28;20392;-64
2021/12/16 00:38:48;;;;;;;44.33;26.15;;;;;;;9.21;92.56;103383.47;5095793;28;20475;-64
2021/12/16 00:41:13;;;;;;;43.42;26.50;;;;;;;9.21;92.81;103387.03;5095507;28;20032;-64
2021/12/16 00:43:47;;;;;;;47.80;26.92;;;;;;;9.19;92.81;103386.00;5095764;28;20048;-64
2021/12/16 00:46:29;;;;;;;51.10;27.00;;;;;;;9.21;92.71;103391.41;5095726;28;20035;-64
2021/12/16 00:49:19;;;;;;;49.85;26.27;;;;;;;9.24;92.80;103384.53;5095234;28;20028;-64
2021/12/16 00:54:30;;;;;;;50.08;27.25;;;;;;;9.24;92.62;103384.53;5095468;28;20042;-64
2021/12/16 00:57:01;;;;;;;45.40;26.40;;;;;;;9.24;92.74;103384.53;5102205;28;20548;-64
2021/12/16 00:59:32;;;;;;;51.15;27.60;;;;;;;9.25;92.61;103390.75;5115374;28;20027;-65
2021/12/16 01:34:57;;;;;;;42.72;25.42;;;;;;;9.15;92.90;103398.94;5052245;28;20464;-64
2021/12/16 01:40:31;;;;;;;44.58;25.73;;;;;;;9.22;93.00;103411.66;4992759;28;20033;-64
2021/12/16 01:51:04;;;;;;;43.50;25.30;;;;;;;9.25;92.42;103417.13;5012290;28;20041;-64
2021/12/16 01:56:16;;;;;;;45.85;25.75;;;;;;;9.25;92.90;103415.41;5012295;28;20069;-64
2021/12/16 01:58:48;;;;;;;44.97;25.33;;;;;;;9.28;92.51;103420.81;5012018;28;20042;-64
2021/12/16 02:01:28;;;;;;;47.67;25.55;;;;;;;9.26;92.51;103427.75;5012112;28;20463;-64
2021/12/16 02:04:01;;;;;;;40.58;23.92;;;;;;;9.26;92.56;103432.13;5011959;28;20034;-64
2021/12/16 02:09:09;;;;;;;45.10;25.77;;;;;;;9.26;92.60;103432.13;5012019;28;20034;-64
2021/12/16 02:11:54;;;;;;;44.03;25.08;;;;;;;9.27;92.77;103428.66;5011849;28;20050;-65
2021/12/16 02:36:25;;;;;;;42.15;23.45;;;;;;;9.28;92.75;103441.03;5113742;28;20527;-64
2021/12/16 02:39:02;;;;;;;45.42;23.92;;;;;;;9.31;92.59;103442.94;5114108;28;20062;-64
2021/12/16 02:41:29;;;;;;;39.03;23.85;;;;;;;9.31;92.45;103438.56;5113736;28;20115;-65
2021/12/16 02:44:14;;;;;;;45.22;25.35;;;;;;;9.31;92.51;103441.22;5113786;28;20379;-64
2021/12/16 02:49:26;;;;;;;38.58;23.33;;;;;;;9.31;92.38;103457.03;5113849;28;20042;-64
2021/12/16 02:51:53;;;;;;;41.30;23.60;;;;;;;9.32;92.07;103456.22;5113631;28;20028;-64
2021/12/16 02:54:20;;;;;;;41.67;23.98;;;;;;;9.34;92.43;103449.31;5113546;28;20468;-64
2021/12/16 02:56:46;;;;;;;35.08;21.75;;;;;;;9.35;92.50;103451.13;5113375;28;20074;-64
2021/12/16 02:59:11;;;;;;;37.97;21.77;;;;;;;9.38;92.43;103453.94;5113461;28;20095;-64
2021/12/16 03:01:39;;;;;;;43.92;23.85;;;;;;;9.37;92.10;103448.56;5113825;28;20425;-63
2021/12/16 03:04:06;;;;;;;39.33;24.38;;;;;;;9.36;92.17;103446.75;5113656;28;20020;-64
2021/12/16 03:06:33;;;;;;;46.78;25.20;;;;;;;9.31;92.42;103443.84;5113735;28;20020;-63
2021/12/16 03:09:00;;;;;;;40.95;24.50;;;;;;;9.27;92.42;103441.84;5113489;28;20389;-64
2021/12/16 03:16:39;;;;;;;41.47;24.70;;;;;;;9.26;92.39;103440.03;5113349;28;20047;-64
2021/12/16 03:19:20;;;;;;;44.10;25.08;;;;;;;9.26;92.29;103445.31;5113393;28;20023;-64
2021/12/16 03:21:51;;;;;;;43.05;23.85;;;;;;;9.28;92.53;103441.03;5113292;28;20084;-64
2021/12/16 03:32:47;;;;;;;42.15;23.20;;;;;;;9.22;92.55;103445.97;5113151;28;20103;-64
2021/12/16 03:35:32;;;;;;;41.13;23.17;;;;;;;9.21;92.48;103452.97;5116912;28;20046;-64
2021/12/16 03:38:05;;;;;;;35.88;22.05;;;;;;;9.24;92.79;103446.94;5098957;28;20414;-64
2021/12/16 03:40:32;;;;;;;46.88;23.95;;;;;;;9.21;92.61;103436.25;5117153;28;20055;-64
2021/12/16 03:43:05;;;;;;;40.17;24.73;;;;;;;9.25;92.75;103451.44;5117059;28;20469;-64
2021/12/16 03:48:47;;;;;;;35.75;22.15;;;;;;;9.25;92.69;103457.59;5117249;28;20498;-64
2021/12/16 03:51:21;;;;;;;33.55;21.13;;;;;;;9.26;92.47;103454.16;5116943;28;20480;-64
2021/12/16 03:53:49;;;;;;;40.33;23.33;;;;;;;9.24;92.34;103452.22;5116548;28;20361;-65
2021/12/16 03:56:16;;;;;;;40.30;24.30;;;;;;;9.23;92.57;103463.59;5116673;28;20027;-63
2021/12/16 03:58:42;;;;;;;37.83;21.15;;;;;;;9.24;92.59;103463.69;5116627;28;20096;-65
2021/12/16 04:01:12;;;;;;;40.38;23.75;;;;;;;9.25;92.38;103472.53;5116748;28;20035;-64
2021/12/16 04:03:38;;;;;;;36.63;22.90;;;;;;;9.27;92.52;103469.16;5116797;28;20019;-64
2021/12/16 04:06:04;;;;;;;36.97;21.35;;;;;;;9.24;92.61;103461.03;5116775;28;20452;-64
2021/12/16 04:08:29;;;;;;;36.53;22.95;;;;;;;9.25;92.25;103469.91;5116426;28;20102;-64
2021/12/16 04:11:11;;;;;;;37.65;22.65;;;;;;;9.21;92.33;103473.19;5116824;28;20023;-64
2021/12/16 04:13:54;;;;;;;41.55;23.92;;;;;;;9.21;92.62;103476.72;5116426;28;20387;-64
2021/12/16 04:16:31;;;;;;;35.92;22.27;;;;;;;9.18;92.45;103476.53;5116837;28;20024;-64
2021/12/16 04:19:00;;;;;;;38.42;20.50;;;;;;;9.19;92.29;103466.88;5116238;28;20036;-64
2021/12/16 04:21:27;;;;;;;39.53;23.40;;;;;;;9.16;92.46;103464.06;5116366;28;20081;-65
2021/12/16 04:23:56;;;;;;;36.58;21.60;;;;;;;9.15;92.39;103462.25;5116370;28;20085;-64
2021/12/16 04:26:23;;;;;;;46.60;24.00;;;;;;;9.17;92.32;103457.97;5116284;28;20085;-65
2021/12/16 04:28:48;;;;;;;39.85;22.63;;;;;;;9.15;92.37;103471.06;5116224;28;20023;-65
2021/12/16 04:31:14;;;;;;;36.67;21.45;;;;;;;9.13;92.70;103471.81;5116250;28;20024;-64
2021/12/16 04:33:39;;;;;;;37.95;23.05;;;;;;;9.09;92.60;103468.06;5115891;28;20065;-65
2021/12/16 04:36:08;;;;;;;42.22;23.40;;;;;;;9.11;92.63;103468.16;5116187;28;20076;-64
2021/12/16 04:38:37;;;;;;;41.03;22.50;;;;;;;9.11;92.70;103460.25;5115990;28;20039;-64
2021/12/16 04:41:05;;;;;;;42.58;22.73;;;;;;;9.11;92.67;103457.59;5115903;28;20066;-64
2021/12/16 04:43:40;;;;;;;38.53;22.45;;;;;;;9.09;92.63;103454.88;5115825;28;20047;-64
2021/12/16 04:46:13;;;;;;;42.50;23.23;;;;;;;9.07;92.37;103458.25;5114970;28;20028;-64
2021/12/16 04:48:41;;;;;;;39.55;23.33;;;;;;;9.04;92.29;103472.19;5115830;28;20035;-64
2021/12/16 04:51:08;;;;;;;46.28;23.35;;;;;;;9.02;92.77;103469.44;5115547;28;20061;-64
2021/12/16 04:53:34;;;;;;;36.95;22.90;;;;;;;9.00;92.44;103465.81;5115670;28;20032;-64
2021/12/16 04:56:00;;;;;;;39.40;23.23;;;;;;;8.98;92.51;103461.25;5115691;28;20461;-64
2021/12/16 04:58:26;;;;;;;46.67;22.17;;;;;;;8.94;92.33;103465.44;5115385;28;20093;-65
2021/12/16 05:00:52;;;;;;;38.67;22.42;;;;;;;8.95;93.04;103466.34;5115468;28;20042;-65
2021/12/16 05:03:18;;;;;;;37.55;22.45;;;;;;;8.94;92.56;103469.78;5115629;28;20023;-64
2021/12/16 05:05:44;;;;;;;41.20;22.67;;;;;;;8.89;92.23;103466.88;5115512;28;20034;-64
2021/12/16 05:08:09;;;;;;;38.03;21.02;;;;;;;8.89;91.97;103466.88;5115406;28;20028;-64
2021/12/16 05:10:35;;;;;;;34.63;19.50;;;;;;;8.86;92.02;103466.69;5115101;28;20031;-63
2021/12/16 05:13:01;;;;;;;39.38;21.48;;;;;;;8.84;91.92;103470.06;5114918;28;20016;-64
2021/12/16 05:15:34;;;;;;;38.00;22.00;;;;;;;8.82;92.28;103471.69;5115192;28;20024;-65
2021/12/16 05:18:03;;;;;;;36.45;20.40;;;;;;;8.76;92.15;103474.88;5115446;28;20023;-65
2021/12/16 05:20:33;;;;;;;40.03;21.92;;;;;;;8.72;92.31;103473.78;5115075;28;20034;-65
2021/12/16 05:28:22;;;;;;;37.97;22.20;;;;;;;8.68;92.55;103484.94;5115361;28;20040;-64
2021/12/16 05:30:49;;;;;;;36.88;21.45;;;;;;;8.67;92.37;103482.25;5115069;28;20027;-64
2021/12/16 05:33:15;;;;;;;41.53;22.05;;;;;;;8.67;92.20;103477.88;5115151;28;20050;-64
2021/12/16 05:35:41;;;;;;;34.78;21.15;;;;;;;8.62;91.94;103481.97;5114757;28;20080;-64
2021/12/16 05:38:07;;;;;;;39.70;21.73;;;;;;;8.63;92.40;103486.41;5114887;28;20024;-66
2021/12/16 05:40:33;;;;;;;35.95;21.38;;;;;;;8.62;92.18;103487.22;5114637;28;20038;-63
2021/12/16 05:43:03;;;;;;;33.95;20.30;;;;;;;8.61;92.35;103495.03;5114117;28;20019;-64
2021/12/16 05:45:29;;;;;;;32.75;17.52;;;;;;;8.62;92.92;103494.22;5114162;28;20491;-64
2021/12/16 05:47:57;;;;;;;39.10;21.73;;;;;;;8.59;92.39;103494.03;5114074;28;20024;-63
2021/12/16 05:50:24;;;;;;;32.38;18.58;;;;;;;8.60;92.18;103509.94;5096094;28;20114;-64
2021/12/16 05:52:50;;;;;;;34.95;21.67;;;;;;;8.58;91.81;103513.31;5114665;28;20103;-64
2021/12/16 05:55:16;;;;;;;42.10;21.88;;;;;;;8.51;92.08;103506.72;5114152;28;20119;-64
2021/12/16 05:57:42;;;;;;;39.05;20.92;;;;;;;8.50;92.44;103508.47;5114092;28;20079;-64
2021/12/16 06:00:16;;;;;;;38.30;21.30;;;;;;;8.45;92.46;103512.53;5114572;28;20047;-64
2021/12/16 06:02:42;;;;;;;32.63;19.35;;;;;;;8.42;92.01;103517.63;5114238;28;20055;-64
2021/12/16 06:05:08;;;;;;;34.50;19.88;;;;;;;8.41;91.87;103531.59;5114326;28;20409;-65
2021/12/16 06:07:34;;;;;;;38.72;21.75;;;;;;;8.37;92.05;103520.78;5114289;28;20023;-64
2021/12/16 06:09:59;;;;;;;33.35;20.45;;;;;;;8.32;91.81;103530.09;5114253;28;20035;-65
2021/12/16 06:12:26;;;;;;;37.53;21.88;;;;;;;8.29;90.99;103530.81;5114372;28;20402;-64
2021/12/16 06:28:19;;;;;;;231.13;11.75;;;;;;;7.99;89.65;103535.94;5113979;28;20070;-64
2021/12/16 06:30:45;;;;;;;35.08;12.48;;;;;;;7.92;88.97;103536.38;5113890;28;20063;-64
2021/12/16 06:33:14;;;;;;;104.32;14.48;;;;;;;7.85;89.86;103536.78;5113758;28;20047;-65
2021/12/16 06:35:41;;;;;;;27.60;14.30;;;;;;;7.82;89.50;103543.56;5113867;28;20119;-64
2021/12/16 06:38:06;;;;;;;35.10;13.60;;;;;;;7.76;90.36;103544.97;5114049;28;20028;-65
2021/12/16 06:40:32;;;;;;;40.65;16.35;;;;;;;7.74;90.88;103549.22;5113783;28;20384;-64
2021/12/16 06:43:00;;;;;;;51.83;15.65;;;;;;;7.70;91.20;103547.19;5113911;28;20020;-64
2021/12/16 06:45:30;;;;;;;58.75;16.42;;;;;;;7.68;90.63;103543.56;5095510;28;20032;-64
2021/12/16 06:48:06;;;;;;;62.80;18.00;;;;;;;7.69;91.18;103542.75;5095363;28;20049;-64
2021/12/16 06:50:54;;;;;;;108.28;17.90;;;;;;;7.67;90.89;103539.13;5113534;28;20028;-64
2021/12/16 06:53:32;;;;;;;66.78;16.25;;;;;;;7.65;91.81;103543.34;5113599;28;20023;-63
2021/12/16 06:56:07;;;;;;;94.28;16.55;;;;;;;7.61;91.32;103549.22;5113695;28;20552;-64
2021/12/16 06:59:07;;;;;;;28.45;14.88;;;;;;;7.54;90.43;103547.00;5112904;28;20056;-64
2021/12/16 07:01:38;;;;;;;51.58;15.93;;;;;;;7.49;90.30;103557.22;5111030;28;20438;-64
2021/12/16 07:04:13;;;;;;;50.83;13.93;;;;;;;7.44;89.40;103560.34;5113414;28;20034;-64
2021/12/16 07:06:40;;;;;;;56.22;14.38;;;;;;;7.37;89.12;103558.13;5113462;28;20072;-65
2021/12/16 07:09:13;;;;;;;49.45;16.13;;;;;;;7.38;90.91;103552.06;5116314;28;20031;-64
2021/12/16 07:11:51;;;;;;;40.05;15.57;;;;;;;7.38;90.82;103559.94;5117744;28;20023;-64
2021/12/16 07:14:19;;;;;;;26.83;15.45;;;;;;;7.42;91.30;103562.88;5117507;28;20076;-64
2021/12/16 07:16:48;;;;;;;116.35;16.20;;;;;;;7.34;89.49;103568.44;5117574;28;20031;-64
2021/12/16 07:19:14;;;;;;;111.65;16.30;;;;;;;7.28;89.19;103563.69;5117378;28;20031;-64
2021/12/16 07:21:43;;;;;;;54.35;16.75;;;;;;;7.24;89.80;103580.97;5117385;28;20028;-64
2021/12/16 07:24:12;;;;;;;27.17;15.57;;;;;;;7.36;90.86;103588.75;5117410;28;20034;-63
2021/12/16 07:26:41;;;;;;;29.95;17.10;;;;;;;7.38;90.45;103591.50;5117395;28;20023;-63
2021/12/16 07:29:08;;;;;;;83.97;17.10;;;;;;;7.26;88.37;103587.22;5099049;28;20035;-64
2021/12/16 07:31:34;;;;;;;84.70;16.17;;;;;;;7.26;89.46;103599.47;5117218;28;20057;-64
2021/12/16 07:34:00;;;;;;;71.80;16.73;;;;;;;7.22;89.80;103606.22;5116716;28;20034;-64
2021/12/16 07:36:27;;;;;;;32.42;17.00;;;;;;;7.27;90.00;103612.72;5116741;28;20024;-64
2021/12/16 07:38:54;;;;;;;146.82;17.20;;;;;;;7.28;89.58;103609.31;5116838;28;20410;-64
2021/12/16 07:41:24;;;;;;;61.05;18.13;;;;;;;7.32;88.90;103615.66;5116675;28;20026;-64
2021/12/16 07:46:21;;;;;;;58.47;16.02;;;;;;;7.30;88.84;103619.00;5116603;28;20036;-64
2021/12/16 07:48:46;;;;;;;33.35;16.45;;;;;;;7.30;89.53;103626.91;5116624;28;20391;-63
2021/12/16 07:51:12;;;;;;;40.33;16.77;;;;;;;7.33;89.78;103640.28;5116364;28;20024;-63
2021/12/16 07:53:39;;;;;;;60.25;16.65;;;;;;;7.34;88.66;103640.38;5116398;28;20094;-65
2021/12/16 07:56:07;;;;;;;58.70;15.82;;;;;;;7.27;87.38;103643.38;5116599;28;20353;-64
2021/12/16 07:58:37;;;;;;;58.10;15.18;;;;;;;7.25;87.70;103653.78;5116006;28;20051;-64
2021/12/16 08:01:04;;;;;;;46.20;15.30;;;;;;;7.26;88.71;103657.31;5116485;28;20062;-64
2021/12/16 08:03:35;;;;;;;73.65;16.83;;;;;;;7.24;88.15;103662.50;5115901;28;20384;-65
2021/12/16 08:06:05;;;;;;;112.00;13.82;;;;;;;7.17;87.07;103659.31;5116322;28;20038;-65
2021/12/16 08:08:32;;;;;;;27.33;14.25;;;;;;;7.12;87.30;103666.00;5116206;28;20024;-64
2021/12/16 08:10:58;;;;;;;49.70;15.98;;;;;;;7.12;88.56;103658.09;5116131;28;20031;-64
2021/12/16 08:13:24;;;;;;;68.70;16.85;;;;;;;7.11;90.07;103646.66;5115936;28;20470;-64
2021/12/16 08:15:50;;;;;;;39.00;15.10;;;;;;;7.22;88.33;103661.47;5116263;28;20035;-64
2021/12/16 08:18:16;;;;;;;40.85;15.90;;;;;;;7.26;87.84;103670.47;5115630;28;20530;-65
2021/12/16 08:20:42;;;;;;;36.97;15.68;;;;;;;7.27;88.19;103678.47;5116111;28;20074;-65
2021/12/16 08:23:08;;;;;;;54.03;15.27;;;;;;;7.25;88.24;103679.19;5116042;28;20020;-64
2021/12/16 08:25:36;;;;;;;57.92;17.25;;;;;;;7.26;88.80;103675.75;5115831;28;20444;-65
2021/12/16 08:28:04;;;;;;;56.85;16.92;;;;;;;7.32;88.66;103693.66;5115805;28;20484;-65
2021/12/16 08:30:35;;;;;;;112.38;15.57;;;;;;;7.33;88.99;103684.97;5115722;28;20042;-65
2021/12/16 08:33:04;;;;;;;31.85;15.98;;;;;;;7.35;89.04;103684.25;5115630;28;20028;-65
2021/12/16 08:35:31;;;;;;;33.22;16.75;;;;;;;7.42;88.67;103688.25;5115632;28;20031;-65
2021/12/16 08:37:57;;;;;;;41.10;16.65;;;;;;;7.48;89.69;103697.47;5115663;28;20496;-65
2021/12/16 08:40:24;;;;;;;46.97;18.98;;;;;;;7.58;89.39;103690.19;5115494;28;20031;-65
2021/12/16 08:42:50;;;;;;;47.10;21.38;;;;;;;7.71;89.19;103691.16;5115485;28;20035;-64
2021/12/16 08:45:24;;;;;;;38.20;19.98;;;;;;;7.90;90.55;103701.19;5115416;28;20361;-65
2021/12/16 08:48:00;;;;;;;44.28;19.38;;;;;;;7.99;88.78;103698.28;5097136;28;20080;-65
2021/12/16 08:50:31;;;;;;;44.20;17.50;;;;;;;8.07;88.30;103707.59;5115801;28;20028;-64
2021/12/16 08:52:59;;;;;;;46.17;19.67;;;;;;;8.17;89.63;103707.41;5115473;28;20035;-65
2021/12/16 08:55:30;;;;;;;39.53;19.85;;;;;;;8.32;88.65;103722.41;5115325;28;20043;-65
2021/12/16 08:57:56;;;;;;;47.47;20.77;;;;;;;8.36;88.37;103711.28;5114957;28;20036;-66
2021/12/16 09:00:28;;;;;;;37.25;18.45;;;;;;;8.39;87.66;103719.38;5115182;28;20024;-66
2021/12/16 09:02:54;;;;;;;39.20;18.58;;;;;;;8.44;87.13;103718.91;5115394;28;20376;-65
2021/12/16 09:05:21;;;;;;;37.85;17.83;;;;;;;8.47;86.98;103724.34;5115211;28;20097;-64
2021/12/16 09:07:48;;;;;;;53.67;20.90;;;;;;;8.50;87.79;103727.19;5114898;28;20070;-64
2021/12/16 09:10:20;;;;;;;56.22;21.98;;;;;;;8.62;88.71;103731.44;5115055;28;20028;-65
2021/12/16 09:12:53;;;;;;;;;;;;;;;8.80;89.18;103726.44;5115325;28;20035;-64
2021/12/16 09:15:21;;;;;;;49.65;21.13;;;;;;;8.85;88.27;103723.28;5114934;28;19912;-64
2021/12/16 09:17:47;;;;;;;50.40;21.67;;;;;;;9.04;88.57;103728.03;5114884;28;20161;-63
2021/12/16 09:20:12;;;;;;;45.47;20.40;;;;;;;9.24;88.54;103729.25;5114864;28;20080;-64
2021/12/16 09:22:38;;;;;;;42.92;22.38;;;;;;;9.46;88.64;103735.06;5114982;28;20031;-65
2021/12/16 09:25:05;;;;;;;38.42;22.10;;;;;;;9.79;88.20;103741.47;5114611;28;20042;-65
2021/12/16 09:27:31;;;;;;;40.78;23.00;;;;;;;10.12;87.36;103741.66;5114508;28;20357;-65
2021/12/16 09:29:57;;;;;;;37.42;23.17;;;;;;;10.42;86.08;103733.75;5114421;28;20035;-64
2021/12/16 09:32:26;;;;;;;40.20;22.45;;;;;;;10.65;85.67;103729.75;5112898;28;20022;-64
2021/12/16 09:34:53;;;;;;;34.83;22.02;;;;;;;11.08;84.85;103729.50;5113240;28;20073;-63
2021/12/16 09:37:19;;;;;;;35.65;21.75;;;;;;;11.57;83.12;103730.44;5096317;28;20040;-63
2021/12/16 09:39:45;;;;;;;36.38;22.00;;;;;;;11.98;81.08;103732.59;5114358;28;20080;-63
2021/12/16 09:42:11;;;;;;;33.45;21.83;;;;;;;12.60;79.46;103727.72;5095694;28;20023;-64
2021/12/16 09:44:38;;;;;;;38.67;21.65;;;;;;;13.07;77.97;103732.63;5113994;28;20023;-63
2021/12/16 09:47:09;;;;;;;33.00;21.73;;;;;;;13.52;76.48;103733.84;5114005;28;20507;-64
2021/12/16 09:49:34;;;;;;;35.10;22.50;;;;;;;13.75;75.13;103734.88;5114016;28;20024;-63
2021/12/16 09:52:12;;;;;;;33.85;22.83;;;;;;;13.72;76.88;103725.88;5114084;28;20024;-64
2021/12/16 09:54:40;;;;;;;33.72;21.83;;;;;;;13.26;73.87;103730.00;5114107;28;20023;-63
2021/12/16 09:57:06;;;;;;;33.47;21.80;;;;;;;13.27;75.62;103733.56;5113376;28;20055;-64
2021/12/16 09:59:33;;;;;;;35.05;22.17;;;;;;;13.48;75.63;103733.66;5113913;28;20073;-64
2021/12/16 10:02:07;;;;;;;30.27;21.23;;;;;;;13.42;75.72;103723.66;5113746;28;20028;-64
2021/12/16 10:04:33;;;;;;;29.63;20.65;;;;;;;13.30;75.20;103727.50;5113634;28;20426;-64
2021/12/16 10:07:11;;;;;;;30.30;21.15;;;;;;;13.25;76.65;103738.84;5113715;28;20390;-63
2021/12/16 10:09:37;;;;;;;30.40;20.80;;;;;;;13.14;76.36;103733.81;5113522;28;20031;-63
2021/12/16 10:12:12;;;;;;;32.97;21.77;;;;;;;13.18;77.02;103733.13;5113841;28;20096;-64
2021/12/16 10:15:02;;;;;;;36.78;21.05;;;;;;;13.31;76.76;103730.22;5113474;28;20063;-63
2021/12/16 10:17:33;;;;;;;34.38;21.20;;;;;;;13.39;76.35;103731.47;5095403;28;20051;-64
2021/12/16 10:20:18;;;;;;;31.88;21.08;;;;;;;13.30;77.46;103727.50;5113248;28;20015;-64
2021/12/16 10:23:19;;;;;;;33.38;21.40;;;;;;;13.23;79.16;103732.56;5113301;28;20396;-64
2021/12/16 10:25:52;;;;;;;33.47;21.80;;;;;;;13.20;76.83;103731.47;5010976;28;20053;-64
2021/12/16 10:28:43;;;;;;;38.25;21.13;;;;;;;13.12;78.39;103724.88;5010972;28;20050;-64
2021/12/16 10:31:13;;;;;;;29.98;20.58;;;;;;;13.08;77.27;103726.50;5010953;28;20026;-64
2021/12/16 10:34:18;;;;;;;35.53;21.30;;;;;;;13.14;77.58;103728.50;5010985;28;20022;-63
2021/12/16 10:36:45;;;;;;;34.60;20.38;;;;;;;13.21;77.04;103736.84;4952289;28;20134;-64
2021/12/16 10:39:23;;;;;;;31.73;20.38;;;;;;;13.27;77.50;103734.50;4952019;28;20608;-63
2021/12/16 10:41:52;;;;;;;36.13;20.23;;;;;;;13.26;76.65;103729.09;4952295;28;20500;-63
2021/12/16 10:44:30;;;;;;;31.20;20.10;;;;;;;13.24;77.26;103733.47;4952002;29;20031;-63
2021/12/16 10:47:10;;;;;;;35.70;20.35;;;;;;;13.19;77.44;103734.94;4952186;29;20319;-63
2021/12/16 10:49:50;;;;;;;30.38;20.05;;;;;;;13.17;77.22;103736.63;4952260;29;20409;-63
2021/12/16 10:52:19;;;;;;;31.48;20.23;;;;;;;13.26;76.48;103729.09;4952384;29;20493;-64
2021/12/16 10:54:48;;;;;;;28.50;19.48;;;;;;;13.45;76.43;103729.13;4952222;29;20054;-64
2021/12/16 10:57:20;;;;;;;29.92;20.73;;;;;;;13.89;76.67;103730.16;4952170;29;20055;-64
2021/12/16 10:59:54;;;;;;;;;;;;;;;14.12;78.93;103728.47;4952980;29;20047;-64
2021/12/16 11:02:20;;;;;;;32.55;19.95;;;;;;;14.50;73.93;103729.22;4988595;28;19910;-63
2021/12/16 11:05:18;;;;;;;38.97;24.85;;;;;;;14.64;72.75;103735.97;4990822;28;20034;-64
2021/12/16 11:07:56;;;;;;;38.58;27.13;;;;;;;15.15;72.73;103738.88;4988343;28;20074;-65
2021/12/16 11:10:33;;;;;;;37.00;23.48;;;;;;;15.40;71.56;103737.13;4991171;28;20045;-65
2021/12/16 11:13:02;;;;;;;33.55;23.50;;;;;;;15.77;70.35;103742.09;5054472;28;20063;-63
2021/12/16 11:15:37;;;;;;;34.80;19.48;;;;;;;16.06;68.11;103742.19;5072371;28;20033;-63
2021/12/16 11:18:09;;;;;;;32.85;18.23;;;;;;;16.39;68.09;103742.44;5072360;28;20035;-62
2021/12/16 11:20:48;;;;;;;30.30;17.65;;;;;;;16.65;66.03;103741.50;5072278;28;20025;-63
2021/12/16 11:23:23;;;;;;;26.35;17.42;;;;;;;16.67;65.22;103752.25;5072313;28;20032;-63
2021/12/16 11:25:54;;;;;;;26.10;17.30;;;;;;;16.88;64.66;103750.28;5072402;28;20021;-62
2021/12/16 11:28:41;;;;;;;22.90;13.63;;;;;;;17.05;66.35;103747.25;5072562;28;20358;-63
2021/12/16 11:31:12;;;;;;;17.75;12.15;;;;;;;16.97;63.85;103744.31;5072348;28;20028;-63
2021/12/16 11:33:44;;;;;;;18.67;11.97;;;;;;;17.13;62.67;103746.63;5071982;28;20465;-62
2021/12/16 11:36:24;;;;;;;20.63;14.00;;;;;;;17.01;64.19;103738.22;5072140;28;20779;-63
2021/12/16 11:38:59;;;;;;;19.40;13.32;;;;;;;17.02;62.86;103738.25;5072392;28;20083;-63
2021/12/16 11:41:25;;;;;;;18.73;11.52;;;;;;;17.03;61.47;103740.06;5072194;28;20029;-63
2021/12/16 11:43:59;;;;;;;17.80;11.00;;;;;;;16.83;62.62;103725.22;5072213;28;20032;-63
2021/12/16 11:46:27;;;;;;;20.17;10.35;;;;;;;16.63;62.62;103732.56;5072202;28;20110;-63
2021/12/16 11:48:55;;;;;;;17.75;10.50;;;;;;;16.59;63.02;103729.75;5072002;28;20100;-62
2021/12/16 11:52:09;;;;;;;18.40;10.32;;;;;;;16.58;66.13;103733.28;5071789;28;20032;-63
2021/12/16 11:54:40;;;;;;;15.93;9.77;;;;;;;16.40;63.14;103722.88;4972670;28;20050;-63
2021/12/16 11:57:20;;;;;;;15.98;9.85;;;;;;;16.44;65.04;103730.13;4981815;28;20049;-63
2021/12/16 11:59:50;;;;;;;19.40;10.63;;;;;;;16.23;64.29;103712.59;5013313;28;20494;-63
2021/12/16 12:02:36;;;;;;;18.58;10.20;;;;;;;16.26;65.02;103717.09;5014075;28;20068;-63
2021/12/16 12:05:29;;;;;;;20.40;10.75;;;;;;;16.23;65.69;103723.25;5013411;28;20038;-63
2021/12/16 12:08:13;;;;;;;20.10;10.93;;;;;;;16.38;66.12;103721.94;5013657;28;20049;-63
2021/12/16 12:10:53;;;;;;;19.90;10.20;;;;;;;16.43;63.19;103718.56;5013710;28;20030;-63
2021/12/16 12:13:50;;;;;;;15.45;10.05;;;;;;;16.66;65.54;103715.72;5013429;28;20033;-64
2021/12/16 12:16:38;;;;;;;17.88;10.55;;;;;;;16.97;65.05;103712.28;5013618;28;20132;-63
2021/12/16 12:19:19;;;;;;;18.23;10.18;;;;;;;17.38;63.36;103723.25;5013354;28;20586;-63
2021/12/16 12:22:02;;;;;;;16.83;10.45;;;;;;;17.63;62.46;103720.41;5012817;28;20406;-65
2021/12/16 12:24:37;;;;;;;15.70;9.75;;;;;;;17.94;60.75;103711.50;5012204;28;20056;-63
2021/12/16 12:27:11;;;;;;;16.50;9.68;;;;;;;18.40;59.10;103712.63;5013421;28;20471;-63
2021/12/16 12:29:40;;;;;;;17.02;10.82;;;;;;;18.38;56.94;103710.78;5013021;28;20502;-63
2021/12/16 12:32:14;;;;;;;18.30;11.70;;;;;;;18.68;57.90;103703.47;5086661;28;20515;-64
2021/12/16 12:34:45;;;;;;;17.65;10.80;;;;;;;18.57;56.38;103709.44;5094906;28;20024;-63
2021/12/16 12:37:15;;;;;;;23.00;11.80;;;;;;;18.59;56.48;103699.69;5095240;28;20392;-64
2021/12/16 12:39:44;;;;;;;20.67;13.27;;;;;;;18.57;56.28;103701.41;5095068;28;20047;-64
2021/12/16 12:42:12;;;;;;;19.63;11.80;;;;;;;18.72;57.02;103705.38;5095517;28;20047;-64
2021/12/16 12:44:39;;;;;;;16.55;10.32;;;;;;;18.77;55.03;103708.16;5094916;28;20032;-63
2021/12/16 12:47:11;;;;;;;17.13;10.60;;;;;;;18.81;56.17;103704.69;5095400;28;20031;-64
2021/12/16 12:49:38;;;;;;;15.98;10.43;;;;;;;18.69;55.10;103704.38;5094909;28;20119;-63
2021/12/16 12:52:05;;;;;;;17.73;10.77;;;;;;;18.88;54.98;103703.94;5094994;28;20469;-64
2021/12/16 12:54:31;;;;;;;17.88;10.52;;;;;;;19.11;54.26;103704.44;5076548;28;20416;-64
2021/12/16 12:57:18;;;;;;;19.42;11.02;;;;;;;19.41;54.12;103703.25;5094256;28;20020;-64
2021/12/16 12:59:44;;;;;;;49.30;43.97;;;;;;;19.41;52.99;103703.25;5094826;28;20028;-64
2021/12/16 13:02:33;;;;;;;18.40;11.35;;;;;;;19.68;55.78;103698.44;5094785;28;20043;-64
2021/12/16 13:05:04;;;;;;;18.75;11.15;;;;;;;19.77;51.38;103695.94;5094013;28;20020;-65
2021/12/16 13:07:37;;;;;;;16.67;10.82;;;;;;;19.71;51.35;103698.50;5094084;28;20036;-64
2021/12/16 13:10:19;;;;;;;;;;;;;;;19.74;58.32;103703.94;5095216;28;20030;-65
2021/12/16 13:13:14;;;;;;;19.67;10.98;;;;;;;19.56;52.30;103689.22;5094320;28;19938;-64
2021/12/16 13:23:49;;;;;;;17.17;10.95;;;;;;;19.27;52.25;103693.16;5094357;28;20201;-64
2021/12/16 13:26:34;;;;;;;18.75;10.93;;;;;;;19.31;52.26;103696.78;5094419;28;20043;-64
2021/12/16 13:29:27;;;;;;;16.75;10.30;;;;;;;19.50;52.22;103696.28;5093869;28;20028;-64
2021/12/16 13:32:30;;;;;;;19.58;11.02;;;;;;;19.64;53.64;103701.03;5094183;28;20521;-64
2021/12/16 13:36:00;;;;;;;17.63;10.98;;;;;;;19.68;52.78;103702.91;5093841;28;20115;-64
2021/12/16 13:37:55;;;;;;;16.45;10.65;;;;;;;19.60;50.21;103701.81;5076335;28;20311;-64
2021/12/16 13:40:30;;;;;;;18.58;10.38;;;;;;;19.88;52.29;103704.19;5093971;28;20024;-65
2021/12/16 13:43:11;;;;;;;16.33;10.55;;;;;;;19.95;51.02;103694.44;5094053;28;20445;-64
2021/12/16 13:45:48;;;;;;;21.63;10.80;;;;;;;20.06;49.86;103700.91;5093858;28;20103;-64
2021/12/16 14:05:24;;;;;;;15.90;10.90;;;;;;;19.39;51.54;103700.53;5093658;28;20119;-64
2021/12/16 14:08:05;;;;;;;18.35;11.40;;;;;;;19.30;52.78;103708.41;5075239;28;20061;-64
2021/12/16 14:47:02;;;;;;;14.80;9.80;;;;;;;18.56;52.43;103734.41;5010977;28;20100;-64
2021/12/16 14:49:41;;;;;;;19.25;14.27;;;;;;;18.68;54.37;103735.63;5010818;28;20128;-64
2021/12/16 14:52:20;;;;;;;27.33;20.30;;;;;;;18.62;54.24;103740.81;5009211;28;20034;-64
2021/12/16 14:54:50;;;;;;;19.38;11.68;;;;;;;18.25;52.86;103734.56;5010230;28;20029;-64
2021/12/16 14:57:25;;;;;;;20.42;11.70;;;;;;;18.27;53.87;103724.78;5087888;28;20048;-64
2021/12/16 14:59:51;;;;;;;20.17;12.50;;;;;;;18.37;53.32;103730.38;5092691;28;20093;-64